Time;durP1;ratioP1;P1;durP2;ratioP2;P2;SDS_P1;SDS_P2;PMS_P1;PMS_P2;Temp;Humidity;BMP_temperature;BMP_pressure;BME280_temperature;BME280_humidity;BME280_pressure;Samples;Min_cycle;Max_cycle;Signal;HPM_P1;HPM_P2
2024/03/01 00:00:52;;;;;;;27.83;13.85;;;5.40;72.00;;;;;;5074533;28;20743;-67
2024/03/01 00:03:21;;;;;;;24.48;16.73;;;5.40;72.20;;;;;;5074691;28;20205;-67
2024/03/01 00:05:47;;;;;;;27.38;16.20;;;5.50;72.30;;;;;;5074783;28;20276;-67
2024/03/01 00:08:14;;;;;;;26.83;16.10;;;5.50;72.30;;;;;;5074968;28;20221;-66
2024/03/01 00:10:42;;;;;;;26.17;15.60;;;5.50;72.30;;;;;;5074620;28;20190;-67
2024/03/01 00:13:09;;;;;;;25.90;16.52;;;5.60;72.00;;;;;;5087717;28;20220;-67
2024/03/01 00:15:37;;;;;;;30.83;16.48;;;5.70;71.40;;;;;;5089889;28;20585;-67
2024/03/01 00:18:09;;;;;;;29.95;17.75;;;5.70;72.10;;;;;;5074663;28;20190;-67
2024/03/01 00:20:37;;;;;;;28.85;16.33;;;5.70;70.70;;;;;;5074163;28;20266;-67
2024/03/01 00:23:04;;;;;;;28.80;17.15;;;5.60;71.20;;;;;;5074479;28;20249;-67
2024/03/01 00:25:31;;;;;;;27.77;16.42;;;5.70;71.40;;;;;;5074295;28;20277;-67
2024/03/01 00:27:58;;;;;;;30.35;17.70;;;5.70;71.30;;;;;;5074192;28;20218;-67
2024/03/01 00:30:26;;;;;;;25.92;15.43;;;5.70;71.10;;;;;;5073965;28;20619;-67
2024/03/01 00:32:53;;;;;;;24.92;15.27;;;5.70;71.30;;;;;;5073838;28;20256;-67
2024/03/01 00:35:20;;;;;;;26.80;16.00;;;5.80;71.00;;;;;;5073836;28;20644;-67
2024/03/01 00:37:48;;;;;;;28.27;15.60;;;5.80;71.30;;;;;;5090569;28;20229;-67
2024/03/01 00:40:15;;;;;;;24.52;13.40;;;5.70;71.30;;;;;;5093967;28;20664;-67
2024/03/01 00:42:42;;;;;;;28.65;15.98;;;5.70;71.70;;;;;;5093797;28;20236;-67
2024/03/01 00:45:10;;;;;;;21.77;14.93;;;5.70;72.20;;;;;;5094014;28;20232;-67
2024/03/01 00:47:44;;;;;;;32.85;16.80;;;5.80;72.50;;;;;;5093814;28;20687;-67
2024/03/01 00:50:11;;;;;;;30.00;17.33;;;5.80;72.50;;;;;;5094335;28;20174;-67
2024/03/01 00:52:38;;;;;;;29.45;17.27;;;5.70;73.00;;;;;;5093204;28;20221;-67
2024/03/01 00:55:07;;;;;;;29.45;16.00;;;5.80;72.70;;;;;;5094165;28;20276;-67
2024/03/01 00:57:34;;;;;;;34.40;18.30;;;5.80;73.00;;;;;;5094068;28;20197;-67
2024/03/01 01:00:03;;;;;;;44.42;20.75;;;5.70;73.30;;;;;;5093534;28;20189;-68
2024/03/01 01:02:30;;;;;;;56.08;22.27;;;5.70;74.80;;;;;;5093611;28;20238;-67
2024/03/01 01:04:57;;;;;;;46.13;22.08;;;5.60;76.90;;;;;;5093969;28;20198;-67
2024/03/01 01:07:24;;;;;;;39.75;21.88;;;5.70;78.00;;;;;;5093927;28;20242;-67
2024/03/01 01:09:51;;;;;;;40.35;20.40;;;5.70;78.60;;;;;;5093475;28;20232;-67
2024/03/01 01:12:20;;;;;;;43.22;21.40;;;5.80;79.00;;;;;;5093747;28;20193;-67
2024/03/01 01:14:47;;;;;;;34.28;20.85;;;5.80;79.30;;;;;;5079292;28;20651;-67
2024/03/01 01:17:14;;;;;;;40.38;21.48;;;5.90;79.50;;;;;;5073267;28;20236;-67
2024/03/01 01:19:41;;;;;;;35.80;21.08;;;5.90;78.80;;;;;;5085852;28;20217;-67
2024/03/01 01:22:08;;;;;;;37.83;23.08;;;5.90;79.00;;;;;;5093756;28;20280;-67
2024/03/01 01:24:35;;;;;;;39.10;19.88;;;5.90;79.30;;;;;;5093668;28;20197;-67
2024/03/01 01:27:02;;;;;;;33.55;20.15;;;5.90;79.50;;;;;;5093266;28;20280;-67
2024/03/01 01:29:31;;;;;;;31.05;20.73;;;5.90;79.80;;;;;;5093338;28;20195;-67
2024/03/01 01:31:58;;;;;;;36.90;20.13;;;5.90;79.70;;;;;;5093654;28;20189;-67
2024/03/01 01:34:25;;;;;;;36.50;20.42;;;5.90;79.80;;;;;;5093060;28;20365;-67
2024/03/01 01:36:52;;;;;;;37.58;19.15;;;6.00;80.20;;;;;;5093128;28;20302;-67
2024/03/01 01:39:19;;;;;;;43.35;20.30;;;6.00;79.80;;;;;;5093759;28;20317;-67
2024/03/01 01:41:46;;;;;;;36.55;21.35;;;6.00;79.20;;;;;;5093717;28;20231;-68
2024/03/01 01:44:13;;;;;;;37.35;19.38;;;6.00;78.60;;;;;;5092822;28;20285;-68
2024/03/01 01:46:42;;;;;;;37.55;18.73;;;6.00;78.40;;;;;;5093413;28;20243;-67
2024/03/01 01:49:10;;;;;;;42.22;18.83;;;6.00;78.30;;;;;;5092981;28;20193;-67
2024/03/01 01:51:38;;;;;;;36.40;18.83;;;6.00;78.10;;;;;;5096752;28;20185;-67
2024/03/01 01:54:05;;;;;;;37.30;18.70;;;6.00;77.80;;;;;;5097541;28;20636;-67
2024/03/01 01:56:33;;;;;;;33.60;19.52;;;6.00;77.40;;;;;;5097577;28;20616;-67
2024/03/01 01:59:02;;;;;;;44.75;21.80;;;5.90;77.70;;;;;;5097215;28;20232;-67
2024/03/01 02:01:30;;;;;;;37.90;19.55;;;5.90;77.80;;;;;;5096750;28;20189;-67
2024/03/01 02:03:58;;;;;;;44.50;22.42;;;5.90;78.10;;;;;;5097340;28;20546;-67
2024/03/01 02:06:25;;;;;;;42.50;22.10;;;5.90;77.90;;;;;;5097372;28;20281;-67
2024/03/01 02:08:53;;;;;;;42.17;20.77;;;5.90;78.20;;;;;;5097098;28;20699;-67
2024/03/01 02:11:20;;;;;;;38.58;22.52;;;5.80;78.50;;;;;;5096959;28;20276;-67
2024/03/01 02:13:47;;;;;;;39.75;19.88;;;5.80;79.40;;;;;;5081953;28;20297;-67
2024/03/01 02:16:14;;;;;;;35.35;19.27;;;5.80;79.40;;;;;;5078760;28;20279;-67
2024/03/01 02:18:41;;;;;;;37.80;19.60;;;5.90;79.60;;;;;;5097181;28;20197;-67
2024/03/01 02:21:11;;;;;;;37.05;19.58;;;5.90;79.40;;;;;;5096783;28;20228;-68
2024/03/01 02:23:44;;;;;;;39.03;21.67;;;5.90;79.10;;;;;;5097025;28;20193;-67
2024/03/01 02:26:13;;;;;;;29.95;19.23;;;5.80;79.00;;;;;;5096722;28;20178;-67
2024/03/01 02:28:48;;;;;;;34.00;18.60;;;5.80;79.00;;;;;;5097005;28;20203;-67
2024/03/01 02:31:16;;;;;;;45.03;22.65;;;5.80;79.00;;;;;;5085102;28;20201;-67
2024/03/01 02:33:43;;;;;;;38.97;19.15;;;5.70;78.60;;;;;;5075971;28;20223;-67
2024/03/01 02:36:10;;;;;;;43.15;20.50;;;5.70;78.80;;;;;;5076495;28;20186;-67
2024/03/01 02:38:38;;;;;;;37.75;19.17;;;5.70;78.80;;;;;;5076416;28;20545;-67
2024/03/01 02:41:06;;;;;;;39.55;19.77;;;5.70;79.10;;;;;;5076158;28;20235;-67
2024/03/01 02:43:33;;;;;;;34.53;19.50;;;5.70;78.70;;;;;;5075815;28;20263;-67
2024/03/01 02:46:00;;;;;;;40.70;18.77;;;5.70;79.00;;;;;;5075629;28;20186;-67
2024/03/01 02:48:28;;;;;;;41.28;19.55;;;5.60;79.10;;;;;;5075953;28;20225;-67
2024/03/01 02:50:55;;;;;;;29.85;18.23;;;5.60;79.30;;;;;;5075704;28;20246;-67
2024/03/01 02:53:22;;;;;;;32.85;17.85;;;5.60;79.20;;;;;;5075717;28;20220;-67
2024/03/01 02:55:51;;;;;;;38.17;18.25;;;5.70;79.50;;;;;;5084941;28;20213;-68
2024/03/01 02:58:20;;;;;;;30.42;16.65;;;5.70;79.00;;;;;;5078931;28;20232;-67
2024/03/01 03:00:47;;;;;;;31.42;17.65;;;5.70;78.80;;;;;;5075521;28;20577;-67
2024/03/01 03:03:14;;;;;;;37.67;19.17;;;5.70;78.80;;;;;;5076039;28;20222;-67
2024/03/01 03:05:45;;;;;;;39.33;21.65;;;5.70;79.00;;;;;;5075745;28;20226;-67
2024/03/01 03:08:12;;;;;;;37.72;19.75;;;5.70;79.10;;;;;;5075676;28;20274;-67
2024/03/01 03:10:39;;;;;;;33.67;19.23;;;5.80;79.50;;;;;;5085689;28;20189;-67
2024/03/01 03:13:07;;;;;;;34.97;21.00;;;5.80;79.30;;;;;;5096087;28;20553;-67
2024/03/01 03:15:35;;;;;;;34.58;19.58;;;5.70;79.30;;;;;;5095648;28;20209;-67
2024/03/01 03:18:03;;;;;;;37.60;19.60;;;5.70;79.80;;;;;;5095928;28;20221;-67
2024/03/01 03:20:35;;;;;;;40.67;20.27;;;5.70;79.80;;;;;;5087503;28;20193;-67
2024/03/01 03:23:03;;;;;;;42.92;20.08;;;5.70;79.80;;;;;;5075002;28;20652;-67
2024/03/01 03:25:30;;;;;;;42.00;21.08;;;5.70;80.50;;;;;;5075619;28;20206;-67
2024/03/01 03:27:57;;;;;;;41.00;21.25;;;5.70;80.50;;;;;;5075019;28;20194;-67
2024/03/01 03:30:24;;;;;;;46.42;21.23;;;5.70;80.50;;;;;;5075374;28;20244;-67
2024/03/01 03:32:53;;;;;;;38.45;19.67;;;5.80;80.10;;;;;;5075502;28;20267;-67
2024/03/01 03:35:20;;;;;;;38.60;19.60;;;5.80;80.30;;;;;;5075413;28;20218;-67
2024/03/01 03:37:47;;;;;;;33.85;19.20;;;5.80;79.30;;;;;;5075032;28;20907;-67
2024/03/01 03:40:15;;;;;;;41.58;22.40;;;5.80;79.70;;;;;;5075327;28;20226;-67
2024/03/01 03:42:42;;;;;;;36.20;20.02;;;5.80;80.00;;;;;;5074941;28;20222;-67
2024/03/01 03:45:10;;;;;;;35.67;17.95;;;5.80;79.90;;;;;;5074889;28;20198;-67
2024/03/01 03:47:38;;;;;;;34.75;21.20;;;5.80;80.00;;;;;;5074904;28;20186;-67
2024/03/01 03:50:07;;;;;;;35.40;19.90;;;5.70;80.10;;;;;;5075229;28;20259;-67
2024/03/01 03:52:35;;;;;;;36.45;18.45;;;5.70;80.00;;;;;;5075055;28;20244;-67
2024/03/01 03:55:04;;;;;;;39.38;21.58;;;5.70;80.30;;;;;;5081912;28;20726;-67
2024/03/01 03:57:32;;;;;;;34.90;20.55;;;5.70;80.70;;;;;;5095157;28;20189;-67
2024/03/01 03:59:59;;;;;;;37.25;21.90;;;5.80;80.30;;;;;;5089651;28;20572;-67
2024/03/01 04:02:26;;;;;;;38.92;21.00;;;5.70;80.40;;;;;;5074937;28;20538;-67
2024/03/01 04:04:54;;;;;;;31.58;18.50;;;5.70;81.00;;;;;;5074546;28;20198;-67
2024/03/01 04:07:22;;;;;;;36.25;19.80;;;5.80;81.30;;;;;;5074765;28;20197;-67
2024/03/01 04:09:51;;;;;;;31.60;18.23;;;5.80;81.30;;;;;;5074773;28;20598;-68
2024/03/01 04:12:18;;;;;;;38.38;20.90;;;5.80;81.40;;;;;;5074009;28;20190;-67
2024/03/01 04:14:46;;;;;;;35.10;19.13;;;5.80;81.00;;;;;;5074174;28;20249;-67
2024/03/01 04:17:13;;;;;;;36.30;19.95;;;5.80;80.60;;;;;;5074645;28;20243;-67
2024/03/01 04:19:40;;;;;;;34.65;19.20;;;5.80;80.10;;;;;;5074567;28;20203;-67
2024/03/01 04:22:08;;;;;;;32.70;18.63;;;5.70;81.00;;;;;;5074390;28;20197;-66
2024/03/01 04:24:41;;;;;;;32.17;17.23;;;5.70;81.50;;;;;;5074164;28;20206;-67
2024/03/01 04:27:09;;;;;;;30.60;19.23;;;5.60;80.70;;;;;;5074123;28;20186;-67
2024/03/01 04:29:36;;;;;;;27.15;17.95;;;5.60;81.20;;;;;;5072255;28;20529;-67
2024/03/01 04:32:07;;;;;;;28.13;17.38;;;5.50;81.50;;;;;;5077275;28;20228;-67
2024/03/01 04:34:34;;;;;;;26.65;17.27;;;5.50;82.10;;;;;;5094518;28;20237;-67
2024/03/01 04:37:01;;;;;;;30.83;18.13;;;5.50;82.40;;;;;;5077688;28;20668;-67
2024/03/01 04:39:28;;;;;;;24.85;18.38;;;5.60;82.00;;;;;;5073818;28;20222;-67
2024/03/01 04:41:57;;;;;;;31.33;17.83;;;5.60;82.20;;;;;;5074142;28;20194;-67
2024/03/01 04:44:24;;;;;;;28.02;15.45;;;5.60;82.20;;;;;;5074142;28;20182;-67
2024/03/01 04:46:51;;;;;;;23.27;16.83;;;5.70;82.50;;;;;;5074144;28;20280;-68
2024/03/01 04:49:18;;;;;;;28.73;15.13;;;5.70;82.40;;;;;;5074093;28;20680;-67
2024/03/01 04:51:45;;;;;;;22.88;15.50;;;5.70;82.90;;;;;;5074062;28;20273;-70
2024/03/01 04:54:12;;;;;;;20.77;15.77;;;5.70;83.00;;;;;;5073831;28;20252;-67
2024/03/01 04:56:46;;;;;;;29.15;17.05;;;5.70;83.10;;;;;;5073625;28;20194;-67
2024/03/01 04:59:14;;;;;;;25.73;17.15;;;5.80;82.80;;;;;;5073689;28;20593;-67
2024/03/01 05:01:42;;;;;;;26.58;17.65;;;5.70;83.50;;;;;;5073900;28;20218;-67
2024/03/01 05:04:09;;;;;;;29.80;17.23;;;5.70;83.70;;;;;;5073615;28;20225;-67
2024/03/01 05:06:37;;;;;;;27.33;17.35;;;5.60;83.90;;;;;;5073586;28;20230;-67
2024/03/01 05:09:07;;;;;;;25.77;17.77;;;5.60;84.30;;;;;;5089487;28;20181;-67
2024/03/01 05:11:35;;;;;;;26.83;16.48;;;5.50;84.50;;;;;;5086878;28;20217;-67
2024/03/01 05:14:04;;;;;;;30.65;16.98;;;5.50;84.70;;;;;;5073634;28;20194;-67
2024/03/01 05:16:34;;;;;;;24.80;15.57;;;5.50;84.50;;;;;;5073778;28;20284;-67
2024/03/01 05:19:03;;;;;;;25.10;16.40;;;5.60;84.80;;;;;;5073776;28;20555;-67
2024/03/01 05:21:30;;;;;;;29.38;14.32;;;5.60;84.10;;;;;;5073950;28;20618;-67
2024/03/01 05:23:57;;;;;;;25.33;15.82;;;5.60;84.20;;;;;;5081797;28;20653;-67
2024/03/01 05:26:27;;;;;;;23.92;15.75;;;5.60;84.00;;;;;;5073621;28;20579;-67
2024/03/01 05:28:54;;;;;;;27.05;16.52;;;5.60;84.20;;;;;;5073357;28;20216;-67
2024/03/01 05:31:21;;;;;;;27.58;18.40;;;5.70;84.30;;;;;;5073738;28;20221;-67
2024/03/01 05:33:50;;;;;;;28.15;16.25;;;5.70;83.90;;;;;;5073472;28;20225;-67
2024/03/01 05:36:17;;;;;;;24.05;16.45;;;5.70;83.30;;;;;;5073215;28;20604;-67
2024/03/01 05:38:44;;;;;;;24.98;15.68;;;5.70;83.50;;;;;;5073506;28;20269;-67
2024/03/01 05:41:11;;;;;;;28.48;17.05;;;5.70;84.20;;;;;;5073409;28;20201;-67
2024/03/01 05:43:40;;;;;;;32.30;17.40;;;5.70;83.30;;;;;;5073367;28;20271;-67
2024/03/01 05:46:14;;;;;;;29.95;18.48;;;5.70;83.20;;;;;;5070029;28;20241;-67
2024/03/01 05:48:41;;;;;;;28.45;17.50;;;5.70;82.90;;;;;;5072123;28;20220;-67
2024/03/01 05:51:12;;;;;;;35.28;18.92;;;5.60;83.10;;;;;;5072450;28;20190;-67
2024/03/01 05:53:41;;;;;;;31.75;17.48;;;5.70;82.90;;;;;;5072136;28;20183;-67
2024/03/01 05:56:18;;;;;;;29.80;16.08;;;5.70;82.60;;;;;;5072258;28;20213;-67
2024/03/01 05:58:46;;;;;;;26.77;17.45;;;5.60;82.70;;;;;;5072784;28;20189;-67
2024/03/01 06:01:15;;;;;;;27.13;15.70;;;5.60;83.50;;;;;;5072328;28;20278;-68
2024/03/01 06:03:42;;;;;;;26.55;16.02;;;5.60;83.80;;;;;;5072493;28;20644;-67
2024/03/01 06:06:14;;;;;;;21.65;13.60;;;5.60;83.50;;;;;;5072353;28;20218;-67
2024/03/01 06:08:41;;;;;;;24.98;14.63;;;5.60;83.20;;;;;;5072037;28;20634;-67
2024/03/01 06:11:09;;;;;;;27.17;16.45;;;5.60;82.60;;;;;;5072331;28;20218;-67
2024/03/01 06:13:36;;;;;;;28.17;16.42;;;5.60;82.50;;;;;;5072466;28;20190;-67
2024/03/01 06:16:03;;;;;;;30.08;17.20;;;5.60;81.80;;;;;;5071851;28;20763;-67
2024/03/01 06:18:30;;;;;;;26.23;15.43;;;5.60;81.30;;;;;;5071948;28;20247;-67
2024/03/01 06:20:57;;;;;;;25.85;15.52;;;5.60;81.30;;;;;;5071559;28;20185;-67
2024/03/01 06:23:25;;;;;;;28.63;16.17;;;5.60;81.40;;;;;;5092403;28;20193;-67
2024/03/01 06:25:52;;;;;;;29.25;15.90;;;5.60;81.50;;;;;;5091991;28;20232;-67
2024/03/01 06:28:19;;;;;;;30.15;15.63;;;5.60;81.30;;;;;;5076917;28;20612;-67
2024/03/01 06:30:46;;;;;;;24.80;16.20;;;5.60;80.60;;;;;;5079697;28;20228;-67
2024/03/01 06:33:13;;;;;;;22.17;14.88;;;5.50;80.60;;;;;;5069156;28;20273;-68
2024/03/01 06:35:41;;;;;;;26.60;14.93;;;5.50;80.70;;;;;;5070085;28;20297;-68
2024/03/01 06:38:07;;;;;;;21.95;14.40;;;5.50;81.00;;;;;;5074380;28;20202;-68
2024/03/01 06:40:36;;;;;;;27.30;16.35;;;5.50;81.10;;;;;;5075183;28;20289;-68
2024/03/01 06:43:04;;;;;;;27.00;15.23;;;5.50;81.50;;;;;;5074608;28;20225;-68
2024/03/01 06:45:32;;;;;;;29.15;16.98;;;5.60;80.90;;;;;;5075591;28;20285;-67
2024/03/01 06:47:59;;;;;;;23.00;15.00;;;5.50;81.00;;;;;;5075410;28;20214;-68
2024/03/01 06:50:26;;;;;;;24.02;15.32;;;5.50;81.30;;;;;;5075225;28;20197;-68
2024/03/01 06:52:53;;;;;;;22.17;14.13;;;5.50;81.60;;;;;;5075394;28;20194;-68
2024/03/01 06:55:21;;;;;;;22.60;15.30;;;5.50;82.10;;;;;;5075018;28;20210;-68
2024/03/01 06:57:49;;;;;;;20.45;14.30;;;5.60;82.30;;;;;;5075378;28;20186;-68
2024/03/01 07:00:17;;;;;;;21.85;13.30;;;5.60;82.20;;;;;;5074713;28;20220;-67
2024/03/01 07:02:50;;;;;;;24.17;16.00;;;5.60;82.30;;;;;;5075184;28;20665;-68
2024/03/01 07:05:19;;;;;;;24.00;15.18;;;5.60;82.70;;;;;;5074422;28;20716;-68
2024/03/01 07:07:46;;;;;;;26.00;15.65;;;5.70;83.20;;;;;;5074761;28;20182;-68
2024/03/01 07:10:13;;;;;;;21.95;13.75;;;5.70;82.70;;;;;;5074788;28;20217;-68
2024/03/01 07:12:40;;;;;;;22.58;16.58;;;5.80;82.40;;;;;;5074461;28;20580;-68
2024/03/01 07:15:09;;;;;;;25.85;17.23;;;5.80;82.60;;;;;;5075103;28;20206;-68
2024/03/01 07:17:38;;;;;;;28.15;19.52;;;5.80;83.10;;;;;;5074661;28;20214;-68
2024/03/01 07:20:06;;;;;;;37.35;18.23;;;5.80;83.40;;;;;;5075572;28;20189;-68
2024/03/01 07:22:33;;;;;;;29.80;20.23;;;5.90;84.30;;;;;;5074760;28;20222;-68
2024/03/01 07:25:00;;;;;;;27.85;18.77;;;6.00;84.40;;;;;;5073735;28;20279;-68
2024/03/01 07:27:27;;;;;;;27.80;18.00;;;6.00;84.90;;;;;;5075568;28;20228;-68
2024/03/01 07:29:54;;;;;;;34.08;17.30;;;6.10;85.10;;;;;;5075371;28;20190;-68
2024/03/01 07:32:22;;;;;;;28.27;18.58;;;6.10;85.50;;;;;;5075049;28;20284;-68
2024/03/01 07:34:49;;;;;;;27.02;16.92;;;6.20;86.00;;;;;;5072153;28;20277;-68
2024/03/01 07:37:16;;;;;;;27.23;17.10;;;6.30;86.40;;;;;;5074569;28;20614;-68
2024/03/01 07:39:43;;;;;;;26.65;18.83;;;6.40;86.50;;;;;;5074785;28;20284;-68
2024/03/01 07:42:10;;;;;;;25.33;15.05;;;6.50;86.60;;;;;;5074940;28;20236;-68
2024/03/01 07:44:37;;;;;;;29.10;17.70;;;6.50;86.70;;;;;;5075114;28;20368;-68
2024/03/01 07:47:04;;;;;;;28.98;17.40;;;6.70;86.80;;;;;;5074506;28;20604;-68
2024/03/01 07:49:33;;;;;;;28.35;18.55;;;6.70;86.60;;;;;;5073923;28;20225;-68
2024/03/01 07:52:00;;;;;;;29.60;16.48;;;6.80;86.40;;;;;;5074904;28;20190;-68
2024/03/01 07:54:28;;;;;;;33.10;19.60;;;6.90;86.30;;;;;;5074539;28;20190;-68
2024/03/01 07:56:55;;;;;;;28.60;18.55;;;6.90;86.40;;;;;;5074779;28;20214;-68
2024/03/01 07:59:22;;;;;;;31.33;19.92;;;7.00;86.20;;;;;;5074743;28;20281;-68
2024/03/01 08:01:49;;;;;;;27.20;17.95;;;7.10;85.80;;;;;;5074766;28;20236;-68
2024/03/01 08:04:16;;;;;;;32.45;17.80;;;7.10;85.60;;;;;;5074663;28;20281;-68
2024/03/01 08:06:45;;;;;;;27.77;19.95;;;7.10;85.70;;;;;;5074325;28;20281;-68
2024/03/01 08:09:18;;;;;;;28.95;18.13;;;7.20;86.00;;;;;;5074632;28;20273;-67
2024/03/01 08:11:46;;;;;;;26.92;17.77;;;7.30;86.40;;;;;;5074457;28;20178;-68
2024/03/01 08:14:21;;;;;;;27.20;17.00;;;7.40;86.10;;;;;;5074130;28;20664;-68
2024/03/01 08:16:51;;;;;;;28.60;18.27;;;7.40;86.20;;;;;;5074591;28;20202;-68
2024/03/01 08:19:18;;;;;;;31.52;18.50;;;7.50;86.60;;;;;;5074156;28;20557;-68
2024/03/01 08:21:47;;;;;;;32.03;19.48;;;7.60;86.20;;;;;;5074015;28;20221;-68
2024/03/01 08:24:21;;;;;;;31.73;20.55;;;7.70;86.70;;;;;;5074237;28;20233;-68
2024/03/01 08:26:48;;;;;;;25.58;18.58;;;7.70;86.90;;;;;;5073977;28;20193;-68
2024/03/01 08:29:15;;;;;;;30.60;20.80;;;7.80;87.40;;;;;;5073875;28;20228;-68
2024/03/01 08:31:42;;;;;;;27.08;19.23;;;7.80;87.30;;;;;;5074318;28;20546;-68
2024/03/01 08:34:10;;;;;;;25.88;19.60;;;7.90;87.20;;;;;;5074169;28;20229;-68
2024/03/01 08:36:37;;;;;;;50.90;27.55;;;8.00;87.00;;;;;;5073981;28;20300;-68
2024/03/01 08:39:11;;;;;;;95.25;42.97;;;8.10;87.40;;;;;;5073718;28;20198;-68
2024/03/01 08:41:39;;;;;;;38.97;23.90;;;8.10;87.60;;;;;;5073629;28;20182;-68
2024/03/01 08:44:50;;;;;;;36.35;22.30;;;8.20;86.70;;;;;;5073467;28;20217;-68
2024/03/01 08:47:29;;;;;;;30.75;19.73;;;8.20;86.90;;;;;;5073795;28;20183;-68
2024/03/01 08:50:31;;;;;;;29.70;18.02;;;8.30;86.80;;;;;;5073895;28;20265;-68
2024/03/01 08:53:00;;;;;;;24.60;15.88;;;8.40;87.10;;;;;;5073455;28;20225;-68
2024/03/01 08:55:52;;;;;;;28.65;17.42;;;8.50;87.30;;;;;;5073279;28;20218;-68
2024/03/01 08:58:26;;;;;;;30.67;20.02;;;8.50;87.20;;;;;;5073620;28;20277;-68
2024/03/01 09:00:55;;;;;;;30.52;18.92;;;8.60;87.10;;;;;;5073612;28;20216;-68
2024/03/01 09:03:29;;;;;;;28.35;17.90;;;8.60;87.20;;;;;;5073583;28;20201;-68
2024/03/01 09:05:59;;;;;;;38.85;20.70;;;8.70;87.50;;;;;;5073305;28;20186;-68
2024/03/01 09:08:31;;;;;;;37.10;19.10;;;8.70;87.70;;;;;;5073584;28;20281;-68
2024/03/01 09:11:01;;;;;;;33.13;18.58;;;8.80;87.30;;;;;;5073658;28;20524;-68
2024/03/01 09:13:30;;;;;;;30.00;18.15;;;8.90;87.20;;;;;;5073124;28;20190;-68
2024/03/01 09:15:58;;;;;;;35.92;19.45;;;9.00;87.30;;;;;;5073731;28;20210;-68
2024/03/01 09:18:44;;;;;;;31.48;18.05;;;9.00;86.70;;;;;;5073394;28;20218;-68
2024/03/01 09:21:46;;;;;;;24.60;15.55;;;9.10;85.10;;;;;;5073276;28;20180;-68
2024/03/01 09:24:15;;;;;;;24.50;16.75;;;9.20;83.80;;;;;;5050972;28;20202;-68
2024/03/01 09:26:45;;;;;;;25.00;16.70;;;9.20;83.50;;;;;;5073323;28;20293;-68
2024/03/01 09:29:40;;;;;;;24.15;15.00;;;9.20;82.90;;;;;;5073016;28;20276;-68
2024/03/01 09:32:08;;;;;;;22.65;12.02;;;9.30;80.90;;;;;;5073167;28;20356;-68
2024/03/01 09:34:37;;;;;;;20.33;10.68;;;9.40;79.60;;;;;;5073287;28;20594;-68
2024/03/01 09:37:11;;;;;;;20.27;10.98;;;9.40;78.40;;;;;;5073429;28;20245;-68
2024/03/01 09:39:39;;;;;;;17.65;12.35;;;9.40;78.40;;;;;;5073320;28;20232;-68
2024/03/01 09:42:45;;;;;;;23.90;12.93;;;9.40;78.40;;;;;;5073086;28;20197;-68
2024/03/01 09:45:39;;;;;;;19.50;12.57;;;9.50;78.40;;;;;;5073180;28;20236;-68
2024/03/01 09:48:24;;;;;;;22.00;13.98;;;9.50;78.80;;;;;;5068790;28;20629;-68
2024/03/01 09:51:10;;;;;;;24.27;13.32;;;9.60;78.80;;;;;;5073188;28;20178;-68
2024/03/01 09:53:50;;;;;;;23.75;15.80;;;9.70;78.80;;;;;;5073170;28;20210;-68
2024/03/01 09:56:23;;;;;;;22.05;14.00;;;9.70;79.10;;;;;;5073056;28;20229;-68
2024/03/01 09:59:08;;;;;;;25.35;14.50;;;9.70;79.40;;;;;;5072765;28;20186;-68
2024/03/01 10:01:39;;;;;;;22.42;14.50;;;9.80;79.20;;;;;;5072767;28;20183;-68
2024/03/01 10:04:16;;;;;;;22.58;14.75;;;9.80;79.10;;;;;;5073035;28;20269;-68
2024/03/01 10:07:09;;;;;;;20.25;12.82;;;9.90;78.80;;;;;;5072980;28;20190;-68
2024/03/01 10:10:05;;;;;;;19.00;10.43;;;9.90;78.00;;;;;;5072666;28;20645;-68
2024/03/01 10:12:47;;;;;;;20.13;9.95;;;9.90;76.60;;;;;;5075586;28;20178;-68
2024/03/01 10:15:27;;;;;;;26.50;14.35;;;9.90;75.30;;;;;;5076837;28;20235;-69
2024/03/01 10:18:11;;;;;;;19.20;10.60;;;10.00;73.00;;;;;;5076411;28;20739;-68
2024/03/01 10:20:55;;;;;;;14.38;8.02;;;10.00;73.20;;;;;;5076365;28;20656;-68
2024/03/01 10:23:38;;;;;;;12.38;8.55;;;10.00;73.60;;;;;;5076278;28;20273;-68
2024/03/01 10:26:12;;;;;;;11.23;6.70;;;10.00;73.60;;;;;;5076551;28;20182;-68
2024/03/01 10:28:56;;;;;;;10.25;6.38;;;10.00;71.80;;;;;;5076264;28;20655;-68
2024/03/01 10:31:38;;;;;;;14.75;6.60;;;10.00;71.60;;;;;;5076134;28;20273;-68
2024/03/01 10:34:11;;;;;;;11.23;7.00;;;10.00;70.70;;;;;;5076155;28;20633;-68
2024/03/01 10:36:45;;;;;;;10.73;5.63;;;10.00;70.20;;;;;;5075974;28;20233;-68
2024/03/01 10:39:16;;;;;;;11.55;7.38;;;10.00;70.30;;;;;;5076490;28;20382;-68
2024/03/01 10:41:54;;;;;;;8.88;5.70;;;10.00;70.30;;;;;;5075935;28;20194;-68
2024/03/01 10:44:30;;;;;;;11.38;6.03;;;10.00;69.70;;;;;;5076252;28;20605;-68
2024/03/01 10:47:13;;;;;;;13.50;7.78;;;10.00;69.50;;;;;;5075922;28;20217;-68
2024/03/01 10:49:47;;;;;;;13.50;7.00;;;10.00;70.50;;;;;;5076216;28;20262;-68
2024/03/01 10:52:18;;;;;;;10.25;5.85;;;10.00;69.80;;;;;;5075792;28;20185;-68
2024/03/01 10:54:54;;;;;;;14.25;6.05;;;10.00;69.50;;;;;;5075742;28;20178;-68
2024/03/01 10:57:22;;;;;;;10.57;5.97;;;10.00;69.20;;;;;;5076049;28;20210;-68
2024/03/01 11:00:00;;;;;;;11.90;7.07;;;10.00;69.60;;;;;;5075938;28;20285;-68
2024/03/01 11:02:34;;;;;;;11.32;6.47;;;10.10;70.00;;;;;;5075943;28;20602;-68
2024/03/01 11:05:06;;;;;;;10.10;6.15;;;10.10;70.00;;;;;;5075977;28;20178;-68
2024/03/01 11:07:47;;;;;;;12.00;6.05;;;10.10;69.70;;;;;;5075593;28;20193;-68
2024/03/01 11:10:22;;;;;;;9.35;5.30;;;10.10;69.10;;;;;;5075826;28;20213;-68
2024/03/01 11:12:54;;;;;;;11.40;7.05;;;10.10;68.90;;;;;;5075733;28;20272;-68
2024/03/01 11:15:24;;;;;;;15.00;6.57;;;10.20;68.80;;;;;;5075791;28;20178;-68
2024/03/01 11:17:53;;;;;;;12.40;6.57;;;10.20;68.90;;;;;;5075362;28;20738;-68
2024/03/01 11:20:23;;;;;;;13.30;8.48;;;10.10;68.50;;;;;;5075464;28;20191;-68
2024/03/01 11:22:59;;;;;;;9.32;6.00;;;10.10;69.00;;;;;;5074861;28;20243;-68
2024/03/01 11:25:35;;;;;;;9.15;5.88;;;10.20;69.10;;;;;;5075525;28;20205;-68
2024/03/01 11:28:05;;;;;;;13.82;6.93;;;10.20;68.80;;;;;;5075556;28;20438;-68
2024/03/01 11:30:41;;;;;;;11.90;6.20;;;10.20;68.40;;;;;;5075456;28;20190;-68
2024/03/01 11:33:12;;;;;;;10.98;5.35;;;10.20;68.80;;;;;;5075031;28;20178;-68
2024/03/01 11:35:44;;;;;;;12.38;6.97;;;10.20;68.90;;;;;;5075000;28;20221;-68
2024/03/01 11:38:23;;;;;;;27.23;8.13;;;10.30;68.90;;;;;;5074896;28;20692;-68
2024/03/01 11:41:02;;;;;;;12.35;6.40;;;10.20;69.00;;;;;;5075389;28;20231;-68
2024/03/01 11:43:40;;;;;;;10.23;6.60;;;10.20;68.90;;;;;;5074744;28;20218;-68
2024/03/01 11:46:25;;;;;;;9.67;5.63;;;10.20;68.80;;;;;;5074106;28;20261;-68
2024/03/01 11:49:06;;;;;;;10.52;6.85;;;10.30;69.20;;;;;;5074740;28;20504;-68
2024/03/01 11:51:42;;;;;;;9.07;5.97;;;10.30;69.10;;;;;;5075297;28;20202;-68
2024/03/01 11:54:54;;;;;;;9.40;5.97;;;10.30;68.90;;;;;;5074884;28;20189;-68
2024/03/01 11:57:30;;;;;;;15.07;7.45;;;10.30;68.80;;;;;;5012725;28;20486;-68
2024/03/01 12:00:26;;;;;;;7.97;5.85;;;10.30;68.60;;;;;;5012768;28;20290;-68
2024/03/01 12:03:12;;;;;;;10.40;5.80;;;10.40;68.70;;;;;;5061382;28;20380;-68
2024/03/01 12:05:51;;;;;;;9.63;6.78;;;10.40;68.70;;;;;;5074389;28;20503;-66
2024/03/01 12:08:36;;;;;;;12.23;7.00;;;10.40;69.00;;;;;;5074373;28;20628;-67
2024/03/01 12:11:18;;;;;;;23.77;6.78;;;10.40;69.10;;;;;;5074600;28;20200;-68
2024/03/01 12:13:51;;;;;;;10.73;6.63;;;10.40;69.00;;;;;;5074630;28;20182;-69
2024/03/01 12:16:26;;;;;;;10.20;6.57;;;10.50;68.50;;;;;;5074429;28;20190;-68
2024/03/01 12:19:03;;;;;;;9.40;5.75;;;10.50;68.50;;;;;;5074435;28;20181;-68
2024/03/01 12:21:43;;;;;;;12.40;6.80;;;10.50;68.70;;;;;;5074119;28;20243;-67
2024/03/01 12:24:18;;;;;;;10.15;5.60;;;10.50;69.00;;;;;;5074350;28;20769;-67
2024/03/01 12:26:59;;;;;;;8.15;5.30;;;10.50;69.00;;;;;;5074264;28;20275;-67
2024/03/01 12:29:42;;;;;;;13.15;6.10;;;10.50;69.10;;;;;;5074414;28;20220;-67
2024/03/01 12:32:22;;;;;;;11.70;6.28;;;10.50;68.90;;;;;;5073861;28;20217;-67
2024/03/01 12:35:04;;;;;;;9.40;6.10;;;10.50;69.00;;;;;;5073193;28;20217;-67
2024/03/01 12:37:46;;;;;;;8.07;5.22;;;10.50;68.60;;;;;;5073966;28;20890;-68
2024/03/01 12:40:18;;;;;;;13.77;7.03;;;10.50;68.40;;;;;;5074145;28;20209;-68
2024/03/01 12:43:14;;;;;;;8.15;4.97;;;10.50;68.40;;;;;;5073711;28;20218;-68
2024/03/01 12:46:05;;;;;;;7.60;5.32;;;10.50;68.50;;;;;;5073917;28;20265;-68
2024/03/01 12:48:40;;;;;;;11.93;6.88;;;10.50;68.50;;;;;;5073971;28;20213;-67
2024/03/01 12:51:14;;;;;;;9.13;6.23;;;10.50;67.50;;;;;;5073537;28;20658;-67
2024/03/01 12:54:01;;;;;;;7.45;5.35;;;10.50;67.70;;;;;;5073493;28;20420;-67
2024/03/01 12:56:33;;;;;;;8.65;5.90;;;10.40;68.10;;;;;;5073815;28;20567;-68
2024/03/01 12:59:31;;;;;;;8.05;5.57;;;10.50;68.40;;;;;;5073444;28;20640;-68